sensor_id;sensor_type;location;lat;lon;timestamp;temperature;humidity
11597;DHT22;5854;48.072;16.286;2023-02-15T00:00:20;4.80;68.40
11597;DHT22;5854;48.072;16.286;2023-02-15T00:02:47;4.80;67.40
11597;DHT22;5854;48.072;16.286;2023-02-15T00:05:15;4.80;67.40
11597;DHT22;5854;48.072;16.286;2023-02-15T00:07:42;4.80;67.90
11597;DHT22;5854;48.072;16.286;2023-02-15T00:10:09;4.80;68.00
11597;DHT22;5854;48.072;16.286;2023-02-15T00:12:38;4.80;67.60
11597;DHT22;5854;48.072;16.286;2023-02-15T00:15:06;4.80;67.20
11597;DHT22;5854;48.072;16.286;2023-02-15T00:17:33;4.70;68.70
11597;DHT22;5854;48.072;16.286;2023-02-15T00:20:00;4.70;69.60
11597;DHT22;5854;48.072;16.286;2023-02-15T00:22:27;4.50;67.50
11597;DHT22;5854;48.072;16.286;2023-02-15T00:24:55;4.30;67.50
11597;DHT22;5854;48.072;16.286;2023-02-15T00:27:22;4.20;70.50
11597;DHT22;5854;48.072;16.286;2023-02-15T00:29:50;4.40;70.60
11597;DHT22;5854;48.072;16.286;2023-02-15T00:32:18;4.40;70.60
11597;DHT22;5854;48.072;16.286;2023-02-15T00:34:45;4.40;70.20
11597;DHT22;5854;48.072;16.286;2023-02-15T00:37:12;4.40;67.90
11597;DHT22;5854;48.072;16.286;2023-02-15T00:39:39;4.20;68.80
11597;DHT22;5854;48.072;16.286;2023-02-15T00:42:06;4.20;68.90
11597;DHT22;5854;48.072;16.286;2023-02-15T00:44:33;4.10;70.90
11597;DHT22;5854;48.072;16.286;2023-02-15T00:47:01;4.20;70.70
11597;DHT22;5854;48.072;16.286;2023-02-15T00:49:28;4.30;70.40
11597;DHT22;5854;48.072;16.286;2023-02-15T00:51:55;4.30;69.70
11597;DHT22;5854;48.072;16.286;2023-02-15T00:54:22;4.40;70.30
11597;DHT22;5854;48.072;16.286;2023-02-15T00:56:49;4.40;70.90
11597;DHT22;5854;48.072;16.286;2023-02-15T00:59:16;4.50;69.80
11597;DHT22;5854;48.072;16.286;2023-02-15T01:01:43;4.50;70.10
11597;DHT22;5854;48.072;16.286;2023-02-15T01:04:12;4.30;68.90
11597;DHT22;5854;48.072;16.286;2023-02-15T01:06:39;4.30;69.70
11597;DHT22;5854;48.072;16.286;2023-02-15T01:09:06;4.20;70.60
11597;DHT22;5854;48.072;16.286;2023-02-15T01:11:33;4.30;71.10
11597;DHT22;5854;48.072;16.286;2023-02-15T01:14:00;4.20;69.80
11597;DHT22;5854;48.072;16.286;2023-02-15T01:16:28;4.30;70.30
11597;DHT22;5854;48.072;16.286;2023-02-15T01:18:55;4.30;69.20
11597;DHT22;5854;48.072;16.286;2023-02-15T01:21:25;4.30;69.70
11597;DHT22;5854;48.072;16.286;2023-02-15T01:23:52;4.30;68.70
11597;DHT22;5854;48.072;16.286;2023-02-15T01:26:19;4.30;69.50
11597;DHT22;5854;48.072;16.286;2023-02-15T01:28:47;4.30;69.60
11597;DHT22;5854;48.072;16.286;2023-02-15T01:31:15;4.30;69.10
11597;DHT22;5854;48.072;16.286;2023-02-15T01:33:43;4.30;69.10
11597;DHT22;5854;48.072;16.286;2023-02-15T01:36:11;4.40;69.00
11597;DHT22;5854;48.072;16.286;2023-02-15T01:38:39;4.40;68.90
11597;DHT22;5854;48.072;16.286;2023-02-15T01:41:07;4.50;68.10
11597;DHT22;5854;48.072;16.286;2023-02-15T01:43:50;4.50;68.20
11597;DHT22;5854;48.072;16.286;2023-02-15T01:46:23;4.50;67.20
11597;DHT22;5854;48.072;16.286;2023-02-15T01:48:56;4.50;66.10
11597;DHT22;5854;48.072;16.286;2023-02-15T01:51:29;4.40;67.80
11597;DHT22;5854;48.072;16.286;2023-02-15T01:54:02;4.40;68.30
11597;DHT22;5854;48.072;16.286;2023-02-15T01:56:35;4.40;67.50
11597;DHT22;5854;48.072;16.286;2023-02-15T01:59:07;4.40;68.50
11597;DHT22;5854;48.072;16.286;2023-02-15T02:01:36;4.40;68.50
11597;DHT22;5854;48.072;16.286;2023-02-15T02:04:08;4.40;67.60
11597;DHT22;5854;48.072;16.286;2023-02-15T02:06:39;4.20;68.80
11597;DHT22;5854;48.072;16.286;2023-02-15T02:09:07;4.30;71.20
11597;DHT22;5854;48.072;16.286;2023-02-15T02:11:35;4.40;69.70
11597;DHT22;5854;48.072;16.286;2023-02-15T02:14:02;4.40;68.10
11597;DHT22;5854;48.072;16.286;2023-02-15T02:16:37;4.40;67.80
11597;DHT22;5854;48.072;16.286;2023-02-15T02:19:27;4.40;67.50
11597;DHT22;5854;48.072;16.286;2023-02-15T02:22:56;4.40;66.80
11597;DHT22;5854;48.072;16.286;2023-02-15T02:35:19;4.50;67.70
11597;DHT22;5854;48.072;16.286;2023-02-15T02:37:58;4.50;68.90
11597;DHT22;5854;48.072;16.286;2023-02-15T02:40:35;4.50;68.50
11597;DHT22;5854;48.072;16.286;2023-02-15T02:43:11;4.50;69.10
11597;DHT22;5854;48.072;16.286;2023-02-15T02:45:46;4.50;67.90
11597;DHT22;5854;48.072;16.286;2023-02-15T02:48:22;4.50;66.80
11597;DHT22;5854;48.072;16.286;2023-02-15T02:50:51;4.50;67.70
11597;DHT22;5854;48.072;16.286;2023-02-15T02:53:19;4.40;67.80
11597;DHT22;5854;48.072;16.286;2023-02-15T02:55:47;4.40;68.50
11597;DHT22;5854;48.072;16.286;2023-02-15T02:58:21;4.40;66.30
11597;DHT22;5854;48.072;16.286;2023-02-15T03:00:54;4.30;66.70
11597;DHT22;5854;48.072;16.286;2023-02-15T03:03:27;4.30;68.70
11597;DHT22;5854;48.072;16.286;2023-02-15T03:05:58;4.40;69.50
11597;DHT22;5854;48.072;16.286;2023-02-15T03:08:32;4.40;67.80
11597;DHT22;5854;48.072;16.286;2023-02-15T03:11:03;4.40;68.90
11597;DHT22;5854;48.072;16.286;2023-02-15T03:13:31;4.40;68.50
11597;DHT22;5854;48.072;16.286;2023-02-15T03:16:00;4.40;67.90
11597;DHT22;5854;48.072;16.286;2023-02-15T03:18:49;4.40;68.40
11597;DHT22;5854;48.072;16.286;2023-02-15T03:21:26;4.40;69.00
11597;DHT22;5854;48.072;16.286;2023-02-15T03:24:00;4.30;67.90
11597;DHT22;5854;48.072;16.286;2023-02-15T03:26:32;4.20;70.00
11597;DHT22;5854;48.072;16.286;2023-02-15T03:29:02;4.20;70.10
11597;DHT22;5854;48.072;16.286;2023-02-15T03:31:33;4.20;70.70
11597;DHT22;5854;48.072;16.286;2023-02-15T03:34:06;4.20;70.30
11597;DHT22;5854;48.072;16.286;2023-02-15T03:36:41;4.20;70.80
11597;DHT22;5854;48.072;16.286;2023-02-15T03:39:19;4.20;69.60
11597;DHT22;5854;48.072;16.286;2023-02-15T03:41:54;4.20;70.70
11597;DHT22;5854;48.072;16.286;2023-02-15T03:44:27;4.20;70.30
11597;DHT22;5854;48.072;16.286;2023-02-15T03:47:00;4.20;69.50
11597;DHT22;5854;48.072;16.286;2023-02-15T03:49:38;4.20;69.00
11597;DHT22;5854;48.072;16.286;2023-02-15T03:52:09;4.20;68.90
11597;DHT22;5854;48.072;16.286;2023-02-15T03:54:37;4.20;70.10
11597;DHT22;5854;48.072;16.286;2023-02-15T03:57:15;4.30;70.50
11597;DHT22;5854;48.072;16.286;2023-02-15T04:00:05;4.30;70.10
11597;DHT22;5854;48.072;16.286;2023-02-15T04:03:23;4.30;70.10
11597;DHT22;5854;48.072;16.286;2023-02-15T04:05:55;4.20;69.70
11597;DHT22;5854;48.072;16.286;2023-02-15T04:08:22;4.20;70.00
11597;DHT22;5854;48.072;16.286;2023-02-15T04:11:10;4.10;70.60
11597;DHT22;5854;48.072;16.286;2023-02-15T04:13:36;4.10;71.20
11597;DHT22;5854;48.072;16.286;2023-02-15T04:16:03;4.10;70.80
11597;DHT22;5854;48.072;16.286;2023-02-15T04:18:30;4.00;70.50
11597;DHT22;5854;48.072;16.286;2023-02-15T04:21:17;4.10;71.00
11597;DHT22;5854;48.072;16.286;2023-02-15T04:24:02;4.20;70.40
11597;DHT22;5854;48.072;16.286;2023-02-15T04:26:47;4.20;70.20
11597;DHT22;5854;48.072;16.286;2023-02-15T04:29:14;4.30;70.80
11597;DHT22;5854;48.072;16.286;2023-02-15T04:31:41;4.30;70.30
11597;DHT22;5854;48.072;16.286;2023-02-15T04:34:09;4.30;70.40
11597;DHT22;5854;48.072;16.286;2023-02-15T04:36:38;4.30;70.00
11597;DHT22;5854;48.072;16.286;2023-02-15T04:39:06;4.30;69.70
11597;DHT22;5854;48.072;16.286;2023-02-15T04:41:34;4.30;68.70
11597;DHT22;5854;48.072;16.286;2023-02-15T04:44:02;4.30;69.20
11597;DHT22;5854;48.072;16.286;2023-02-15T04:46:29;4.20;69.00
11597;DHT22;5854;48.072;16.286;2023-02-15T04:48:57;4.20;69.60
11597;DHT22;5854;48.072;16.286;2023-02-15T04:51:24;4.20;69.50
11597;DHT22;5854;48.072;16.286;2023-02-15T04:53:53;4.20;68.70
11597;DHT22;5854;48.072;16.286;2023-02-15T04:56:20;4.20;69.20
11597;DHT22;5854;48.072;16.286;2023-02-15T04:58:48;4.10;69.80
11597;DHT22;5854;48.072;16.286;2023-02-15T05:01:15;4.10;70.00
11597;DHT22;5854;48.072;16.286;2023-02-15T05:03:43;4.10;70.40
11597;DHT22;5854;48.072;16.286;2023-02-15T05:06:10;4.10;70.00
11597;DHT22;5854;48.072;16.286;2023-02-15T05:08:37;4.10;69.30
11597;DHT22;5854;48.072;16.286;2023-02-15T05:11:06;4.20;69.50
11597;DHT22;5854;48.072;16.286;2023-02-15T05:13:33;4.10;69.00
11597;DHT22;5854;48.072;16.286;2023-02-15T05:16:00;4.20;69.30
11597;DHT22;5854;48.072;16.286;2023-02-15T05:18:27;4.20;68.60
11597;DHT22;5854;48.072;16.286;2023-02-15T05:20:54;4.10;69.10
11597;DHT22;5854;48.072;16.286;2023-02-15T05:23:21;4.10;68.80
11597;DHT22;5854;48.072;16.286;2023-02-15T05:25:49;4.10;68.70
11597;DHT22;5854;48.072;16.286;2023-02-15T05:28:36;4.20;68.90
11597;DHT22;5854;48.072;16.286;2023-02-15T05:31:06;4.20;68.80
11597;DHT22;5854;48.072;16.286;2023-02-15T05:33:35;4.20;69.40
11597;DHT22;5854;48.072;16.286;2023-02-15T05:36:03;4.20;67.80
11597;DHT22;5854;48.072;16.286;2023-02-15T05:38:30;4.10;68.30
11597;DHT22;5854;48.072;16.286;2023-02-15T05:40:58;4.10;69.30
11597;DHT22;5854;48.072;16.286;2023-02-15T05:43:25;4.20;69.50
11597;DHT22;5854;48.072;16.286;2023-02-15T05:45:54;4.20;68.90
11597;DHT22;5854;48.072;16.286;2023-02-15T05:48:23;4.10;69.50
11597;DHT22;5854;48.072;16.286;2023-02-15T05:50:57;4.10;68.70
11597;DHT22;5854;48.072;16.286;2023-02-15T05:53:36;4.10;68.00
11597;DHT22;5854;48.072;16.286;2023-02-15T05:56:05;4.10;69.00
11597;DHT22;5854;48.072;16.286;2023-02-15T05:58:35;4.10;70.60
11597;DHT22;5854;48.072;16.286;2023-02-15T06:01:09;3.80;67.00
11597;DHT22;5854;48.072;16.286;2023-02-15T06:03:36;3.70;69.60
11597;DHT22;5854;48.072;16.286;2023-02-15T06:06:03;3.80;69.10
11597;DHT22;5854;48.072;16.286;2023-02-15T06:08:31;3.80;69.90
11597;DHT22;5854;48.072;16.286;2023-02-15T06:10:59;3.90;70.30
11597;DHT22;5854;48.072;16.286;2023-02-15T06:13:26;3.90;69.80
11597;DHT22;5854;48.072;16.286;2023-02-15T06:15:55;4.00;68.50
11597;DHT22;5854;48.072;16.286;2023-02-15T06:18:24;4.00;69.00
11597;DHT22;5854;48.072;16.286;2023-02-15T06:20:52;4.00;68.80
11597;DHT22;5854;48.072;16.286;2023-02-15T06:23:40;4.10;69.20
11597;DHT22;5854;48.072;16.286;2023-02-15T06:26:08;4.10;69.30
11597;DHT22;5854;48.072;16.286;2023-02-15T06:28:35;4.20;69.80
11597;DHT22;5854;48.072;16.286;2023-02-15T06:31:04;4.20;68.90
11597;DHT22;5854;48.072;16.286;2023-02-15T06:33:33;4.20;69.10
11597;DHT22;5854;48.072;16.286;2023-02-15T06:36:01;4.10;67.70
11597;DHT22;5854;48.072;16.286;2023-02-15T06:38:29;4.10;68.60
11597;DHT22;5854;48.072;16.286;2023-02-15T06:40:59;4.20;69.00
11597;DHT22;5854;48.072;16.286;2023-02-15T06:43:29;4.40;77.70
11597;DHT22;5854;48.072;16.286;2023-02-15T07:01:23;4.20;68.20
11597;DHT22;5854;48.072;16.286;2023-02-15T07:03:50;4.10;69.10
11597;DHT22;5854;48.072;16.286;2023-02-15T11:30:38;5.10;65.90
11597;DHT22;5854;48.072;16.286;2023-02-15T11:33:16;5.00;66.20
11597;DHT22;5854;48.072;16.286;2023-02-15T11:35:50;4.90;65.60
11597;DHT22;5854;48.072;16.286;2023-02-15T11:38:22;5.00;66.20
11597;DHT22;5854;48.072;16.286;2023-02-15T11:40:54;4.90;65.60
11597;DHT22;5854;48.072;16.286;2023-02-15T11:43:29;4.90;66.30
11597;DHT22;5854;48.072;16.286;2023-02-15T11:46:02;4.90;66.30
11597;DHT22;5854;48.072;16.286;2023-02-15T11:48:30;4.90;64.60
11597;DHT22;5854;48.072;16.286;2023-02-15T11:50:58;5.00;65.80
11597;DHT22;5854;48.072;16.286;2023-02-15T11:53:28;4.90;65.40
11597;DHT22;5854;48.072;16.286;2023-02-15T11:55:59;4.90;69.10
11597;DHT22;5854;48.072;16.286;2023-02-15T11:58:33;5.10;72.00
11597;DHT22;5854;48.072;16.286;2023-02-15T12:01:13;5.60;71.30
11597;DHT22;5854;48.072;16.286;2023-02-15T12:03:46;5.40;64.30
11597;DHT22;5854;48.072;16.286;2023-02-15T12:06:20;5.30;64.50
11597;DHT22;5854;48.072;16.286;2023-02-15T12:08:59;5.30;65.40
11597;DHT22;5854;48.072;16.286;2023-02-15T12:11:34;5.30;64.50
11597;DHT22;5854;48.072;16.286;2023-02-15T12:14:04;5.30;63.40
11597;DHT22;5854;48.072;16.286;2023-02-15T12:16:40;5.20;63.60
11597;DHT22;5854;48.072;16.286;2023-02-15T12:19:28;5.10;64.10
11597;DHT22;5854;48.072;16.286;2023-02-15T12:21:57;5.10;64.80
11597;DHT22;5854;48.072;16.286;2023-02-15T12:24:28;5.30;65.70
11597;DHT22;5854;48.072;16.286;2023-02-15T12:27:01;5.40;65.10
11597;DHT22;5854;48.072;16.286;2023-02-15T12:29:31;5.30;63.60
11597;DHT22;5854;48.072;16.286;2023-02-15T12:32:04;5.20;62.60
11597;DHT22;5854;48.072;16.286;2023-02-15T12:34:36;5.20;64.50
11597;DHT22;5854;48.072;16.286;2023-02-15T12:37:09;5.20;64.90
11597;DHT22;5854;48.072;16.286;2023-02-15T12:39:52;5.30;64.80
11597;DHT22;5854;48.072;16.286;2023-02-15T12:42:20;5.40;63.50
11597;DHT22;5854;48.072;16.286;2023-02-15T12:44:58;5.50;63.50
11597;DHT22;5854;48.072;16.286;2023-02-15T12:47:28;5.40;62.20
11597;DHT22;5854;48.072;16.286;2023-02-15T12:50:06;5.30;63.60
11597;DHT22;5854;48.072;16.286;2023-02-15T12:52:42;5.30;64.00
11597;DHT22;5854;48.072;16.286;2023-02-15T12:55:18;5.40;64.30
11597;DHT22;5854;48.072;16.286;2023-02-15T12:57:47;5.40;63.70
11597;DHT22;5854;48.072;16.286;2023-02-15T13:00:27;5.40;63.60
11597;DHT22;5854;48.072;16.286;2023-02-15T13:02:59;5.40;63.60
11597;DHT22;5854;48.072;16.286;2023-02-15T13:05:31;5.30;64.10
11597;DHT22;5854;48.072;16.286;2023-02-15T13:08:04;5.20;63.60
11597;DHT22;5854;48.072;16.286;2023-02-15T13:10:39;5.30;63.60
11597;DHT22;5854;48.072;16.286;2023-02-15T13:13:10;5.20;64.20
11597;DHT22;5854;48.072;16.286;2023-02-15T13:15:40;5.30;65.00
11597;DHT22;5854;48.072;16.286;2023-02-15T13:18:14;5.20;64.00
11597;DHT22;5854;48.072;16.286;2023-02-15T13:20:44;5.20;63.80
11597;DHT22;5854;48.072;16.286;2023-02-15T13:23:22;5.20;65.00
11597;DHT22;5854;48.072;16.286;2023-02-15T13:25:54;5.20;64.30
11597;DHT22;5854;48.072;16.286;2023-02-15T13:28:24;5.30;65.30
11597;DHT22;5854;48.072;16.286;2023-02-15T13:30:54;5.30;65.20
11597;DHT22;5854;48.072;16.286;2023-02-15T13:33:26;5.30;64.60
11597;DHT22;5854;48.072;16.286;2023-02-15T13:36:04;5.30;65.50
11597;DHT22;5854;48.072;16.286;2023-02-15T13:38:48;5.20;64.70
11597;DHT22;5854;48.072;16.286;2023-02-15T13:41:25;5.20;64.50
11597;DHT22;5854;48.072;16.286;2023-02-15T13:44:01;5.30;65.00
11597;DHT22;5854;48.072;16.286;2023-02-15T13:46:44;5.20;63.70
11597;DHT22;5854;48.072;16.286;2023-02-15T13:49:39;5.20;64.30
11597;DHT22;5854;48.072;16.286;2023-02-15T13:52:19;5.10;64.20
11597;DHT22;5854;48.072;16.286;2023-02-15T13:55:26;5.10;65.70
11597;DHT22;5854;48.072;16.286;2023-02-15T14:01:19;5.00;66.10
11597;DHT22;5854;48.072;16.286;2023-02-15T14:04:44;5.20;66.10
11597;DHT22;5854;48.072;16.286;2023-02-15T14:13:49;5.10;65.70
11597;DHT22;5854;48.072;16.286;2023-02-15T14:16:30;5.10;65.40
11597;DHT22;5854;48.072;16.286;2023-02-15T14:19:13;5.10;65.70
11597;DHT22;5854;48.072;16.286;2023-02-15T14:21:48;5.10;65.60
11597;DHT22;5854;48.072;16.286;2023-02-15T14:24:27;5.10;65.70
11597;DHT22;5854;48.072;16.286;2023-02-15T14:27:08;5.10;65.40
11597;DHT22;5854;48.072;16.286;2023-02-15T14:29:46;5.10;64.70
11597;DHT22;5854;48.072;16.286;2023-02-15T14:32:20;5.10;65.80
11597;DHT22;5854;48.072;16.286;2023-02-15T14:34:55;5.10;65.60
11597;DHT22;5854;48.072;16.286;2023-02-15T14:37:35;5.00;65.50
11597;DHT22;5854;48.072;16.286;2023-02-15T14:40:13;5.10;66.00
11597;DHT22;5854;48.072;16.286;2023-02-15T14:43:08;5.10;65.60
11597;DHT22;5854;48.072;16.286;2023-02-15T14:45:46;5.10;65.50
11597;DHT22;5854;48.072;16.286;2023-02-15T14:48:20;5.10;65.20
11597;DHT22;5854;48.072;16.286;2023-02-15T14:50:50;5.30;71.00
11597;DHT22;5854;48.072;16.286;2023-02-15T14:53:34;5.60;77.10
11597;DHT22;5854;48.072;16.286;2023-02-15T14:56:15;5.50;70.50
11597;DHT22;5854;48.072;16.286;2023-02-15T14:58:59;5.40;64.60
11597;DHT22;5854;48.072;16.286;2023-02-15T15:01:39;5.30;66.00
11597;DHT22;5854;48.072;16.286;2023-02-15T15:04:09;5.20;64.40
11597;DHT22;5854;48.072;16.286;2023-02-15T15:06:41;5.10;65.40
11597;DHT22;5854;48.072;16.286;2023-02-15T15:09:19;5.10;67.00
11597;DHT22;5854;48.072;16.286;2023-02-15T15:11:49;5.10;66.40
11597;DHT22;5854;48.072;16.286;2023-02-15T15:14:39;5.10;66.00
11597;DHT22;5854;48.072;16.286;2023-02-15T15:17:11;5.10;66.80
11597;DHT22;5854;48.072;16.286;2023-02-15T15:20:03;5.10;65.90
11597;DHT22;5854;48.072;16.286;2023-02-15T15:22:39;5.00;66.00
11597;DHT22;5854;48.072;16.286;2023-02-15T15:28:07;5.00;67.60
11597;DHT22;5854;48.072;16.286;2023-02-15T15:30:59;5.10;67.70
11597;DHT22;5854;48.072;16.286;2023-02-15T15:40:23;5.00;66.40
11597;DHT22;5854;48.072;16.286;2023-02-15T15:43:31;5.00;66.70
11597;DHT22;5854;48.072;16.286;2023-02-15T15:46:42;5.10;68.80
11597;DHT22;5854;48.072;16.286;2023-02-15T15:49:16;5.10;66.10
11597;DHT22;5854;48.072;16.286;2023-02-15T15:51:45;5.00;67.10
11597;DHT22;5854;48.072;16.286;2023-02-15T15:54:16;5.00;66.50
11597;DHT22;5854;48.072;16.286;2023-02-15T15:56:48;5.00;66.30
11597;DHT22;5854;48.072;16.286;2023-02-15T15:59:20;4.90;66.50
11597;DHT22;5854;48.072;16.286;2023-02-15T16:01:48;4.90;66.50
11597;DHT22;5854;48.072;16.286;2023-02-15T16:04:23;4.90;67.00
11597;DHT22;5854;48.072;16.286;2023-02-15T16:06:54;4.80;67.30
11597;DHT22;5854;48.072;16.286;2023-02-15T16:09:23;4.80;66.70
11597;DHT22;5854;48.072;16.286;2023-02-15T16:11:53;4.70;67.80
11597;DHT22;5854;48.072;16.286;2023-02-15T16:14:28;4.70;67.40
11597;DHT22;5854;48.072;16.286;2023-02-15T16:16:59;4.60;67.70
11597;DHT22;5854;48.072;16.286;2023-02-15T16:19:30;4.60;67.40
11597;DHT22;5854;48.072;16.286;2023-02-15T16:22:00;4.50;67.50
11597;DHT22;5854;48.072;16.286;2023-02-15T16:24:52;4.50;67.00
11597;DHT22;5854;48.072;16.286;2023-02-15T16:27:39;4.50;67.90
11597;DHT22;5854;48.072;16.286;2023-02-15T16:30:19;4.40;66.80
11597;DHT22;5854;48.072;16.286;2023-02-15T16:32:47;4.40;68.30
11597;DHT22;5854;48.072;16.286;2023-02-15T16:35:20;4.30;67.60
11597;DHT22;5854;48.072;16.286;2023-02-15T16:37:48;4.30;67.10
11597;DHT22;5854;48.072;16.286;2023-02-15T16:40:35;4.20;67.30
11597;DHT22;5854;48.072;16.286;2023-02-15T16:43:13;4.20;66.50
11597;DHT22;5854;48.072;16.286;2023-02-15T16:45:44;4.20;68.50
11597;DHT22;5854;48.072;16.286;2023-02-15T16:48:16;4.10;65.90
11597;DHT22;5854;48.072;16.286;2023-02-15T16:50:49;4.10;69.50
11597;DHT22;5854;48.072;16.286;2023-02-15T16:53:21;4.10;66.20
11597;DHT22;5854;48.072;16.286;2023-02-15T16:55:51;4.00;66.50
11597;DHT22;5854;48.072;16.286;2023-02-15T16:58:27;3.90;65.90
11597;DHT22;5854;48.072;16.286;2023-02-15T17:00:58;3.90;65.40
11597;DHT22;5854;48.072;16.286;2023-02-15T17:03:27;3.90;66.20
11597;DHT22;5854;48.072;16.286;2023-02-15T17:05:56;3.80;65.60
11597;DHT22;5854;48.072;16.286;2023-02-15T17:08:29;3.80;65.80
11597;DHT22;5854;48.072;16.286;2023-02-15T17:11:15;3.70;65.30
11597;DHT22;5854;48.072;16.286;2023-02-15T17:16:59;3.70;64.70
11597;DHT22;5854;48.072;16.286;2023-02-15T17:19:30;3.80;70.00
11597;DHT22;5854;48.072;16.286;2023-02-15T17:22:02;3.80;68.80
11597;DHT22;5854;48.072;16.286;2023-02-15T17:27:03;3.70;65.40
11597;DHT22;5854;48.072;16.286;2023-02-15T17:32:14;3.50;66.00
11597;DHT22;5854;48.072;16.286;2023-02-15T17:34:56;3.60;67.70
11597;DHT22;5854;48.072;16.286;2023-02-15T17:37:29;3.50;65.90
11597;DHT22;5854;48.072;16.286;2023-02-15T17:39:58;3.50;67.30
11597;DHT22;5854;48.072;16.286;2023-02-15T17:42:27;3.50;66.10
11597;DHT22;5854;48.072;16.286;2023-02-15T17:44:54;3.40;66.40
11597;DHT22;5854;48.072;16.286;2023-02-15T17:47:24;3.50;69.10
11597;DHT22;5854;48.072;16.286;2023-02-15T17:49:52;3.50;67.10
11597;DHT22;5854;48.072;16.286;2023-02-15T17:52:20;3.40;65.20
11597;DHT22;5854;48.072;16.286;2023-02-15T17:54:47;3.30;64.10
11597;DHT22;5854;48.072;16.286;2023-02-15T17:57:32;3.20;65.40
11597;DHT22;5854;48.072;16.286;2023-02-15T17:59:59;3.20;65.50
11597;DHT22;5854;48.072;16.286;2023-02-15T18:02:45;3.20;67.40
11597;DHT22;5854;48.072;16.286;2023-02-15T18:05:30;3.30;71.30
11597;DHT22;5854;48.072;16.286;2023-02-15T18:08:17;3.40;69.60
11597;DHT22;5854;48.072;16.286;2023-02-15T18:11:02;3.40;68.40
11597;DHT22;5854;48.072;16.286;2023-02-15T18:13:46;3.40;70.30
11597;DHT22;5854;48.072;16.286;2023-02-15T18:16:17;3.40;70.30
11597;DHT22;5854;48.072;16.286;2023-02-15T18:18:48;3.40;70.80
11597;DHT22;5854;48.072;16.286;2023-02-15T18:21:15;3.30;66.20
11597;DHT22;5854;48.072;16.286;2023-02-15T18:23:42;3.10;64.50
11597;DHT22;5854;48.072;16.286;2023-02-15T18:26:16;3.10;68.10
11597;DHT22;5854;48.072;16.286;2023-02-15T18:28:45;3.20;69.90
11597;DHT22;5854;48.072;16.286;2023-02-15T18:31:13;3.20;70.20
11597;DHT22;5854;48.072;16.286;2023-02-15T18:33:43;3.20;68.00
11597;DHT22;5854;48.072;16.286;2023-02-15T18:36:14;3.20;67.80
11597;DHT22;5854;48.072;16.286;2023-02-15T18:38:44;3.10;68.00
11597;DHT22;5854;48.072;16.286;2023-02-15T18:41:16;3.00;66.10
11597;DHT22;5854;48.072;16.286;2023-02-15T18:43:45;3.00;69.20
11597;DHT22;5854;48.072;16.286;2023-02-15T18:46:13;3.00;68.00
11597;DHT22;5854;48.072;16.286;2023-02-15T18:48:41;2.90;66.00
11597;DHT22;5854;48.072;16.286;2023-02-15T18:51:19;2.90;69.20
11597;DHT22;5854;48.072;16.286;2023-02-15T18:53:48;3.00;70.10
11597;DHT22;5854;48.072;16.286;2023-02-15T18:56:18;2.80;64.70
11597;DHT22;5854;48.072;16.286;2023-02-15T18:58:46;2.80;66.40
11597;DHT22;5854;48.072;16.286;2023-02-15T19:01:21;2.80;66.40
11597;DHT22;5854;48.072;16.286;2023-02-15T19:03:50;2.70;65.50
11597;DHT22;5854;48.072;16.286;2023-02-15T19:06:21;2.70;68.10
11597;DHT22;5854;48.072;16.286;2023-02-15T19:08:50;2.80;69.20
11597;DHT22;5854;48.072;16.286;2023-02-15T19:11:20;2.80;68.00
11597;DHT22;5854;48.072;16.286;2023-02-15T19:13:50;2.90;71.10
11597;DHT22;5854;48.072;16.286;2023-02-15T19:16:27;2.90;69.20
11597;DHT22;5854;48.072;16.286;2023-02-15T19:18:56;2.90;70.50
11597;DHT22;5854;48.072;16.286;2023-02-15T19:21:30;2.70;65.40
11597;DHT22;5854;48.072;16.286;2023-02-15T19:24:00;2.60;65.70
11597;DHT22;5854;48.072;16.286;2023-02-15T19:26:30;2.60;68.90
11597;DHT22;5854;48.072;16.286;2023-02-15T19:29:00;2.70;70.90
11597;DHT22;5854;48.072;16.286;2023-02-15T19:31:28;2.70;69.80
11597;DHT22;5854;48.072;16.286;2023-02-15T19:33:55;2.60;67.30
11597;DHT22;5854;48.072;16.286;2023-02-15T19:36:22;2.60;67.60
11597;DHT22;5854;48.072;16.286;2023-02-15T19:38:52;2.60;69.30
11597;DHT22;5854;48.072;16.286;2023-02-15T19:41:24;2.70;72.60
11597;DHT22;5854;48.072;16.286;2023-02-15T19:43:55;2.70;69.40
11597;DHT22;5854;48.072;16.286;2023-02-15T19:46:22;2.70;71.80
11597;DHT22;5854;48.072;16.286;2023-02-15T19:48:55;2.70;71.50
11597;DHT22;5854;48.072;16.286;2023-02-15T19:51:25;2.60;70.50
11597;DHT22;5854;48.072;16.286;2023-02-15T19:53:55;2.60;71.20
11597;DHT22;5854;48.072;16.286;2023-02-15T19:56:23;2.50;67.20
11597;DHT22;5854;48.072;16.286;2023-02-15T19:58:51;2.50;72.00
11597;DHT22;5854;48.072;16.286;2023-02-15T20:01:22;2.50;69.70
11597;DHT22;5854;48.072;16.286;2023-02-15T20:03:50;2.50;72.00
11597;DHT22;5854;48.072;16.286;2023-02-15T20:06:18;2.50;72.20
11597;DHT22;5854;48.072;16.286;2023-02-15T20:08:45;2.60;71.90
11597;DHT22;5854;48.072;16.286;2023-02-15T20:11:14;2.60;72.40
11597;DHT22;5854;48.072;16.286;2023-02-15T20:13:41;2.50;69.70
11597;DHT22;5854;48.072;16.286;2023-02-15T20:16:08;2.30;67.80
11597;DHT22;5854;48.072;16.286;2023-02-15T20:18:35;2.40;72.20
11597;DHT22;5854;48.072;16.286;2023-02-15T20:21:03;2.40;73.00
11597;DHT22;5854;48.072;16.286;2023-02-15T20:23:33;2.40;69.80
11597;DHT22;5854;48.072;16.286;2023-02-15T20:26:11;2.40;73.20
11597;DHT22;5854;48.072;16.286;2023-02-15T20:28:43;2.40;69.30
11597;DHT22;5854;48.072;16.286;2023-02-15T20:31:13;2.40;73.20
11597;DHT22;5854;48.072;16.286;2023-02-15T20:33:41;2.40;73.70
11597;DHT22;5854;48.072;16.286;2023-02-15T20:36:11;2.40;72.60
11597;DHT22;5854;48.072;16.286;2023-02-15T20:38:39;2.40;72.20
11597;DHT22;5854;48.072;16.286;2023-02-15T20:41:12;2.40;72.80
11597;DHT22;5854;48.072;16.286;2023-02-15T20:43:59;2.40;71.50
11597;DHT22;5854;48.072;16.286;2023-02-15T20:46:27;2.30;71.50
11597;DHT22;5854;48.072;16.286;2023-02-15T20:48:54;2.30;73.50
11597;DHT22;5854;48.072;16.286;2023-02-15T20:51:21;2.40;72.80
11597;DHT22;5854;48.072;16.286;2023-02-15T20:53:48;2.20;70.70
11597;DHT22;5854;48.072;16.286;2023-02-15T20:56:18;2.30;74.10
11597;DHT22;5854;48.072;16.286;2023-02-15T20:58:48;2.30;72.00
11597;DHT22;5854;48.072;16.286;2023-02-15T21:01:15;2.30;72.80
11597;DHT22;5854;48.072;16.286;2023-02-15T21:03:44;2.20;71.10
11597;DHT22;5854;48.072;16.286;2023-02-15T21:06:13;2.20;71.20
11597;DHT22;5854;48.072;16.286;2023-02-15T21:08:41;2.10;67.40
11597;DHT22;5854;48.072;16.286;2023-02-15T21:11:18;2.10;71.60
11597;DHT22;5854;48.072;16.286;2023-02-15T21:13:47;2.10;72.50
11597;DHT22;5854;48.072;16.286;2023-02-15T21:16:15;2.10;69.80
11597;DHT22;5854;48.072;16.286;2023-02-15T21:18:42;2.10;71.20
11597;DHT22;5854;48.072;16.286;2023-02-15T21:21:14;2.10;71.80
11597;DHT22;5854;48.072;16.286;2023-02-15T21:23:45;2.10;72.00
11597;DHT22;5854;48.072;16.286;2023-02-15T21:26:15;2.10;73.00
11597;DHT22;5854;48.072;16.286;2023-02-15T21:28:46;2.10;72.40
11597;DHT22;5854;48.072;16.286;2023-02-15T21:31:15;2.00;70.70
11597;DHT22;5854;48.072;16.286;2023-02-15T21:33:44;2.10;73.20
11597;DHT22;5854;48.072;16.286;2023-02-15T21:36:14;2.10;72.90